Time;durP1;ratioP1;P1;durP2;ratioP2;P2;SDS_P1;SDS_P2;PMS_P1;PMS_P2;Temp;Humidity;BMP_temperature;BMP_pressure;BME280_temperature;BME280_humidity;BME280_pressure;Samples;Min_cycle;Max_cycle;Signal;HPM_P1;HPM_P2
2021/03/12 07:45:46;;;;;;;8.10;1.23;;;;;;;6.09;100.00;99151.19;5061154;28;20414;-94
2021/03/12 07:48:13;;;;;;;12.18;0.90;;;;;;;6.44;100.00;99152.28;5048956;28;20048;-90
2021/03/12 07:50:39;;;;;;;11.82;1.00;;;;;;;6.90;100.00;99141.97;5041380;28;20487;-93
2021/03/12 07:53:08;;;;;;;7.05;1.13;;;;;;;6.66;100.00;99148.97;5028768;28;20033;-92
2021/03/12 07:55:40;;;;;;;4.97;0.75;;;;;;;6.98;100.00;99157.06;5013731;28;20029;-92
2021/03/12 07:58:07;;;;;;;11.18;1.23;;;;;;;6.87;100.00;99154.41;5031514;28;20068;-96
2021/03/12 08:00:51;;;;;;;5.45;1.15;;;;;;;7.12;100.00;99151.66;5039886;28;20061;-93
2021/03/12 08:03:32;;;;;;;10.48;1.00;;;;;;;7.29;100.00;99155.66;5036613;28;20029;-88
2021/03/12 08:05:58;;;;;;;10.93;1.27;;;;;;;7.30;100.00;99156.47;5034910;28;20026;-90
2021/03/12 08:08:34;;;;;;;7.43;0.85;;;;;;;7.58;100.00;99155.25;5028748;28;20068;-92
2021/03/12 08:11:21;;;;;;;5.05;1.00;;;;;;;7.10;100.00;99160.56;5029882;28;20045;-92
2021/03/12 08:13:48;;;;;;;4.10;0.90;;;;;;;7.27;100.00;99152.34;5029231;28;20476;-91
2021/03/12 08:16:14;;;;;;;12.48;1.75;;;;;;;7.12;100.00;99132.56;5027485;28;20033;-89
2021/03/12 08:18:39;;;;;;;1.92;0.88;;;;;;;7.14;100.00;99152.38;5028565;28;20353;-89
2021/03/12 08:21:28;;;;;;;10.55;1.20;;;;;;;7.41;100.00;99148.69;5026444;28;20030;-94
2021/03/12 08:23:53;;;;;;;11.00;1.00;;;;;;;7.59;100.00;99146.47;5025993;28;20103;-91
2021/03/12 08:28:18;;;;;;;6.63;1.60;;;;;;;7.53;100.00;99154.78;5062643;28;20371;-90
2021/03/12 08:30:45;;;;;;;8.50;1.75;;;;;;;7.28;100.00;99140.09;5064129;28;20037;-90
2021/03/12 08:33:20;;;;;;;13.18;1.45;;;;;;;7.60;100.00;99148.13;5051670;28;20039;-90
2021/03/12 08:35:46;;;;;;;9.55;1.77;;;;;;;7.58;100.00;99138.75;5063677;28;20048;-89
2021/03/12 08:38:11;;;;;;;10.20;1.38;;;;;;;7.71;100.00;99139.47;5057670;28;20384;-89
2021/03/12 08:40:42;;;;;;;8.93;1.38;;;;;;;7.97;100.00;99131.41;5057935;28;20479;-88
2021/03/12 08:43:11;;;;;;;5.00;1.15;;;;;;;7.72;100.00;99148.97;5067312;28;20434;-89
2021/03/12 08:45:46;;;;;;;5.90;1.30;;;;;;;7.29;100.00;99126.13;5051841;28;20063;-88
2021/03/12 08:48:38;;;;;;;13.63;3.13;;;;;;;7.71;100.00;99144.72;5049999;28;20036;-90
2021/03/12 08:51:03;;;;;;;6.90;1.40;;;;;;;7.51;100.00;99165.31;5047276;28;20037;-89
2021/03/12 08:53:31;;;;;;;13.90;2.75;;;;;;;7.47;100.00;99158.66;5056368;28;20094;-89
2021/03/12 08:55:58;;;;;;;16.50;1.40;;;;;;;7.14;100.00;99167.22;5053951;28;20017;-91
2021/03/12 08:58:32;;;;;;;7.03;1.10;;;;;;;7.36;100.00;99174.31;5047216;28;20075;-89
2021/03/12 09:01:00;;;;;;;7.43;1.30;;;;;;;7.59;100.00;99177.00;5048826;28;20053;-91
2021/03/12 09:03:29;;;;;;;6.45;2.13;;;;;;;7.40;100.00;99188.78;5055827;28;20025;-91
2021/03/12 09:06:05;;;;;;;8.95;1.65;;;;;;;7.24;100.00;99201.31;5061952;28;20024;-91
2021/03/12 09:08:31;;;;;;;8.13;1.75;;;;;;;7.17;100.00;99198.34;5069583;28;20103;-89
2021/03/12 09:10:58;;;;;;;12.63;1.83;;;;;;;7.27;100.00;99201.13;5069249;28;20079;-90
2021/03/12 09:13:27;;;;;;;8.05;2.47;;;;;;;7.09;100.00;99201.50;5068403;28;20378;-90
2021/03/12 09:15:53;;;;;;;10.45;1.60;;;;;;;7.24;100.00;99211.78;5069372;28;20116;-90
2021/03/12 09:18:20;;;;;;;16.35;2.50;;;;;;;6.83;100.00;99208.63;5069975;28;20445;-90
2021/03/12 09:20:51;;;;;;;11.32;1.60;;;;;;;6.88;100.00;99214.31;5068848;28;20025;-91
2021/03/12 09:23:17;;;;;;;8.95;1.38;;;;;;;6.31;100.00;99214.88;5071838;28;20028;-91
2021/03/12 09:25:43;;;;;;;13.02;2.42;;;;;;;6.44;100.00;99188.81;5067535;28;20106;-91
2021/03/12 09:28:11;;;;;;;11.88;2.58;;;;;;;6.31;100.00;99210.50;5066284;28;20035;-89
2021/03/12 09:30:42;;;;;;;13.43;2.60;;;;;;;6.37;100.00;99205.81;5049781;28;20032;-91
2021/03/12 09:33:09;;;;;;;7.32;1.52;;;;;;;6.40;100.00;99206.44;5052990;28;20060;-90
2021/03/12 09:35:41;;;;;;;11.52;1.85;;;;;;;6.39;100.00;99202.13;5067173;28;20029;-88
2021/03/12 09:38:09;;;;;;;14.57;2.92;;;;;;;6.97;100.00;99210.22;5057566;28;20483;-88
2021/03/12 09:40:40;;;;;;;17.73;2.45;;;;;;;7.90;100.00;99218.13;5042698;28;20463;-91
2021/03/12 09:43:08;;;;;;;12.68;2.90;;;;;;;8.51;100.00;99227.47;5056117;28;20032;-91
2021/03/12 09:45:36;;;;;;;35.58;6.13;;;;;;;8.98;95.21;99217.63;5053472;28;20024;-91
2021/03/12 09:48:05;;;;;;;15.55;2.53;;;;;;;9.57;94.32;99200.59;5054904;28;20079;-88
2021/03/12 09:50:35;;;;;;;16.90;2.88;;;;;;;9.28;94.02;99209.09;5039205;28;20026;-90
2021/03/12 09:53:04;;;;;;;18.67;2.67;;;;;;;9.88;93.23;99203.31;5037518;28;20029;-90
2021/03/12 09:55:33;;;;;;;17.33;3.38;;;;;;;11.31;85.14;99204.00;5054516;28;20383;-90
2021/03/12 09:57:58;;;;;;;17.92;2.58;;;;;;;12.23;76.70;99187.66;5055177;28;20109;-89
2021/03/12 10:00:25;;;;;;;14.68;2.45;;;;;;;13.38;75.86;99196.81;5050969;28;20077;-89
2021/03/12 10:02:54;;;;;;;13.85;2.70;;;;;;;13.96;74.49;99199.88;5049948;28;20021;-90
2021/03/12 10:05:21;;;;;;;13.20;2.60;;;;;;;14.16;67.79;99208.41;5050800;28;20025;-90
2021/03/12 10:07:47;;;;;;;13.10;2.90;;;;;;;13.84;70.59;99213.34;5045224;28;20435;-92
2021/03/12 10:10:17;;;;;;;20.23;4.05;;;;;;;13.88;67.58;99198.00;5053142;28;20028;-91
2021/03/12 10:12:43;;;;;;;24.00;3.40;;;;;;;13.39;66.62;99202.91;5079084;28;20017;-91
2021/03/12 10:15:15;;;;;;;23.80;4.88;;;;;;;12.48;73.14;99203.78;5058852;28;20036;-91
2021/03/12 10:17:41;;;;;;;22.42;3.63;;;;;;;12.74;72.78;99200.44;5056953;28;20542;-92
2021/03/12 10:20:08;;;;;;;21.77;3.10;;;;;;;13.08;70.43;99200.66;5056816;28;20163;-91
2021/03/12 10:22:43;;;;;;;25.60;3.47;;;;;;;13.83;67.32;99205.59;5054876;28;20052;-91
2021/03/12 10:25:11;;;;;;;20.90;3.20;;;;;;;12.92;67.10;99217.13;5056425;28;20056;-91
2021/03/12 10:27:58;;;;;;;16.27;3.00;;;;;;;11.82;67.57;99208.09;5055617;28;20037;-89
2021/03/12 10:30:24;;;;;;;23.45;3.25;;;;;;;11.68;70.59;99221.69;5056337;28;20044;-92
2021/03/12 17:38:44;;;;;;;14.45;1.80;;;;;;;8.89;81.09;98961.88;5049578;28;20400;-88
2021/03/12 17:41:10;;;;;;;15.52;2.10;;;;;;;9.07;79.46;98968.16;5025501;28;20030;-92
2021/03/12 17:43:36;;;;;;;16.40;2.25;;;;;;;9.04;79.89;98973.63;5010617;28;20109;-92
2021/03/12 17:46:03;;;;;;;9.68;1.80;;;;;;;9.03;81.10;98964.13;5008184;28;20132;-88
2021/03/12 17:48:28;;;;;;;14.70;2.58;;;;;;;9.02;80.09;98957.22;5009535;28;20044;-87
2021/03/12 17:50:54;;;;;;;8.68;1.88;;;;;;;8.96;80.30;98949.91;5009544;28;20424;-87
2021/03/12 17:53:20;;;;;;;13.05;2.53;;;;;;;9.06;80.47;98945.56;5009106;28;20419;-87
2021/03/12 17:55:46;;;;;;;10.43;2.95;;;;;;;9.34;79.84;98953.69;5014849;28;20062;-84
2021/03/12 17:58:12;;;;;;;15.82;2.30;;;;;;;9.51;78.78;98939.91;5011042;28;20139;-87
2021/03/12 18:00:38;;;;;;;10.13;2.15;;;;;;;9.52;77.60;98940.78;5015662;28;20125;-89
2021/03/12 18:03:08;;;;;;;8.93;2.55;;;;;;;9.12;79.02;98950.28;5021512;28;20026;-95
2021/03/12 18:05:34;;;;;;;6.93;1.75;;;;;;;8.87;80.32;98921.91;5036702;28;20433;-95
2021/03/12 18:07:59;;;;;;;12.88;2.33;;;;;;;9.02;79.36;98936.28;5016195;28;20026;-94
2021/03/12 18:10:25;;;;;;;7.68;2.00;;;;;;;8.78;80.70;98914.81;5019834;28;20053;-96
2021/03/12 18:12:50;;;;;;;15.00;2.00;;;;;;;8.89;79.39;98944.34;5017433;28;20033;-89
2021/03/12 18:15:16;;;;;;;11.75;2.20;;;;;;;9.34;78.72;98932.72;5012177;28;20022;-92
2021/03/12 18:17:44;;;;;;;12.43;2.53;;;;;;;9.50;78.52;98927.81;5010884;28;20044;-90
2021/03/12 18:20:12;;;;;;;14.52;2.60;;;;;;;9.50;79.89;98925.19;5011390;28;20489;-91
2021/03/12 18:25:13;;;;;;;14.80;2.15;;;;;;;9.29;81.36;98903.47;5397025;23;20046;-89
2021/03/12 18:27:39;;;;;;;14.05;2.72;;;;;;;9.18;82.18;98921.88;5010939;28;20077;-93
2021/03/12 18:30:06;;;;;;;20.17;2.83;;;;;;;9.23;82.17;98914.47;5005836;28;20026;-92
2021/03/12 18:32:32;;;;;;;21.40;3.15;;;;;;;9.08;83.76;98917.47;5007004;28;20511;-90
2021/03/12 18:34:57;;;;;;;21.30;2.80;;;;;;;9.13;83.56;98903.97;5014778;28;20109;-96
2021/03/12 18:38:56;;;;;;;10.70;2.53;;;;;;;8.97;83.37;98912.31;5108609;27;20357;-90
2021/03/12 18:41:21;;;;;;;16.98;2.55;;;;;;;9.03;85.49;98903.91;5102326;22;20132;-87
2021/03/12 18:43:46;;;;;;;15.20;3.22;;;;;;;9.28;85.11;98893.94;5064779;28;20390;-88
2021/03/12 18:46:12;;;;;;;11.10;2.63;;;;;;;9.05;85.75;98904.63;5068443;28;20051;-88
2021/03/12 18:48:37;;;;;;;17.98;3.05;;;;;;;8.77;86.58;98908.75;5089300;28;20028;-86
2021/03/12 18:51:03;;;;;;;20.30;2.67;;;;;;;8.91;86.06;98900.56;5089034;28;20067;-87
2021/03/12 18:53:28;;;;;;;19.55;3.28;;;;;;;8.98;86.57;98908.72;5068525;28;20532;-88
2021/03/12 18:55:54;;;;;;;16.90;2.80;;;;;;;8.96;86.63;98897.53;5059153;28;20021;-89
2021/03/12 18:58:20;;;;;;;17.73;3.15;;;;;;;8.99;85.45;98902.53;5068445;28;20474;-87
2021/03/12 19:00:45;;;;;;;17.17;2.65;;;;;;;9.06;84.66;98890.56;5088356;28;20042;-87
2021/03/12 19:03:10;;;;;;;13.70;2.78;;;;;;;9.06;84.91;98882.72;5072314;28;20112;-88
2021/03/12 19:05:36;;;;;;;16.30;2.47;;;;;;;8.91;86.05;98879.63;5068864;28;20386;-88
2021/03/12 19:08:01;;;;;;;12.82;2.80;;;;;;;9.02;86.21;98885.72;5067957;28;20075;-88
2021/03/12 19:10:27;;;;;;;14.80;2.72;;;;;;;9.22;84.96;98878.75;5066098;28;20043;-90
2021/03/12 19:12:53;;;;;;;17.80;3.80;;;;;;;9.13;84.21;98878.59;5068892;28;20103;-87
2021/03/12 19:15:19;;;;;;;16.88;2.78;;;;;;;8.85;85.86;98879.31;5072076;28;20039;-86
2021/03/12 19:17:49;;;;;;;19.70;3.17;;;;;;;8.71;86.27;98878.69;5073618;28;20024;-86
2021/03/12 19:20:16;;;;;;;13.90;2.17;;;;;;;8.85;85.06;98872.28;5092174;28;20031;-85
2021/03/12 19:22:42;;;;;;;14.80;2.38;;;;;;;8.62;86.81;98879.47;5103054;28;20088;-86
2021/03/12 19:25:09;;;;;;;15.95;2.45;;;;;;;8.78;85.89;98865.09;5080240;28;20099;-88
2021/03/12 19:27:36;;;;;;;11.82;2.78;;;;;;;8.73;86.18;98857.63;5062489;28;20025;-85
2021/03/12 19:30:04;;;;;;;18.20;2.75;;;;;;;8.66;88.48;98857.31;5060481;28;20027;-85
2021/03/12 19:32:30;;;;;;;13.93;2.85;;;;;;;8.97;88.62;98849.47;5055539;28;20025;-88
2021/03/12 19:34:55;;;;;;;19.98;3.80;;;;;;;8.79;90.20;98846.66;5065473;28;20029;-83
2021/03/12 19:37:20;;;;;;;13.35;2.60;;;;;;;8.71;91.88;98836.00;5065400;28;20036;-84
2021/03/12 19:41:32;;;;;;;13.20;2.42;;;;;;;8.52;97.34;98831.50;5133294;22;20419;-84
2021/03/12 19:43:58;;;;;;;14.02;2.95;;;;;;;8.63;97.61;98823.56;5082288;28;20048;-86
2021/03/12 19:46:23;;;;;;;15.43;3.05;;;;;;;8.64;97.48;98814.75;5083265;28;20025;-87
2021/03/12 19:48:49;;;;;;;17.27;2.75;;;;;;;8.55;97.54;98810.31;5079907;28;20039;-86
2021/03/12 19:51:14;;;;;;;16.48;3.38;;;;;;;8.33;100.00;98804.25;5057321;28;20029;-87
2021/03/12 19:53:40;;;;;;;15.60;2.60;;;;;;;8.35;100.00;98801.50;5070313;28;20118;-88
2021/03/12 19:56:05;;;;;;;12.90;2.72;;;;;;;8.50;100.00;98796.78;5079049;28;20024;-89
2021/03/12 19:58:31;;;;;;;15.25;2.60;;;;;;;8.53;99.89;98775.59;5072417;28;20101;-87
2021/03/12 20:00:56;;;;;;;10.55;1.92;;;;;;;8.51;99.85;98778.38;5068782;28;20037;-87
2021/03/12 20:03:21;;;;;;;19.50;2.70;;;;;;;8.43;99.97;98767.72;5062674;28;20029;-87
2021/03/12 20:05:47;;;;;;;9.90;2.38;;;;;;;8.50;100.00;98766.22;5068560;28;20032;-87
2021/03/12 20:08:12;;;;;;;9.00;2.22;;;;;;;8.50;100.00;98760.19;5068549;28;20068;-87
2021/03/12 20:10:38;;;;;;;12.40;3.03;;;;;;;8.50;100.00;98736.63;5063405;28;20024;-88
2021/03/12 20:13:04;;;;;;;13.73;3.15;;;;;;;8.54;100.00;98744.06;5060108;28;20384;-87
2021/03/12 20:15:30;;;;;;;14.48;3.60;;;;;;;8.38;100.00;98741.09;5057053;28;20271;-87
2021/03/12 20:17:55;;;;;;;22.42;11.93;;;;;;;8.49;100.00;98732.34;5065212;28;20025;-87
2021/03/12 20:20:21;;;;;;;17.67;11.23;;;;;;;8.58;99.46;98733.34;5053444;28;20557;-88
2021/03/12 20:22:47;;;;;;;11.25;3.30;;;;;;;8.72;98.72;98733.81;5078619;28;20036;-88
2021/03/12 20:25:13;;;;;;;10.70;1.60;;;;;;;8.44;100.00;98726.69;5087143;28;20052;-88
2021/03/12 20:27:39;;;;;;;6.57;1.73;;;;;;;8.30;100.00;98710.38;5067117;28;20029;-88
2021/03/12 20:30:07;;;;;;;10.63;2.10;;;;;;;8.63;100.00;98702.38;5069171;28;20047;-87
2021/03/12 20:32:33;;;;;;;11.73;2.28;;;;;;;8.86;98.52;98698.56;5073365;28;20387;-85
2021/03/12 20:34:59;;;;;;;11.32;2.30;;;;;;;8.34;100.00;98687.41;5069470;28;20031;-85
2021/03/12 20:37:24;;;;;;;14.23;3.78;;;;;;;8.81;99.32;98679.03;5072331;28;20356;-87
2021/03/12 20:39:49;;;;;;;14.45;1.75;;;;;;;8.45;100.00;98652.50;5067435;28;20092;-85
2021/03/12 20:42:15;;;;;;;9.32;2.05;;;;;;;8.44;100.00;98645.63;5069980;28;20017;-85
2021/03/12 20:44:40;;;;;;;15.15;2.08;;;;;;;8.26;100.00;98638.38;5083392;28;20432;-86
2021/03/12 20:47:06;;;;;;;12.82;2.10;;;;;;;8.55;100.00;98650.75;5067799;28;20032;-86
2021/03/12 20:49:31;;;;;;;9.43;1.70;;;;;;;8.63;97.75;98632.59;5067051;28;20074;-86
2021/03/12 20:51:57;;;;;;;8.00;1.90;;;;;;;8.74;97.09;98624.59;5058804;28;20119;-86
2021/03/12 20:54:23;;;;;;;7.10;1.92;;;;;;;8.47;98.68;98621.78;5069308;28;20044;-86
2021/03/12 20:56:51;;;;;;;14.50;4.28;;;;;;;8.27;100.00;98619.13;5053474;28;20498;-86
2021/03/12 20:59:17;;;;;;;7.05;1.98;;;;;;;8.43;98.88;98607.34;5054528;28;20021;-86
2021/03/12 21:01:42;;;;;;;24.13;6.22;;;;;;;8.68;96.77;98606.81;5053388;28;20116;-86
2021/03/12 21:04:07;;;;;;;15.60;8.30;;;;;;;8.42;99.22;98587.41;5070451;28;20032;-86
2021/03/12 21:06:33;;;;;;;11.80;3.78;;;;;;;8.37;99.44;98568.63;5070134;28;20036;-86
2021/03/12 21:08:58;;;;;;;5.10;2.22;;;;;;;8.71;97.60;98559.47;5054720;28;20036;-86
2021/03/12 21:11:24;;;;;;;9.82;1.60;;;;;;;8.59;98.72;98546.66;5053308;28;20041;-86
2021/03/12 21:13:50;;;;;;;11.13;2.65;;;;;;;8.32;100.00;98546.31;5053634;28;20395;-86
2021/03/12 21:16:15;;;;;;;12.25;4.22;;;;;;;8.76;99.22;98539.91;5059160;28;20028;-85
2021/03/12 21:18:41;;;;;;;15.73;7.25;;;;;;;8.06;100.00;98537.34;5074233;28;20029;-85
2021/03/12 21:21:07;;;;;;;13.57;2.35;;;;;;;8.46;100.00;98524.22;5066792;28;20410;-91
2021/03/12 22:42:23;;;;;;;10.73;1.15;;;;;;;7.04;100.00;98250.25;5091517;27;20382;-95
2021/03/12 22:44:52;;;;;;;8.70;1.45;;;;;;;7.24;100.00;98245.88;5073748;28;20041;-95
2021/03/12 22:47:18;;;;;;;5.90;1.02;;;;;;;7.19;100.00;98214.13;5070231;28;20466;-96
2021/03/12 22:49:44;;;;;;;6.65;1.10;;;;;;;7.75;100.00;98218.66;5070549;28;20108;-96
2021/03/12 22:52:09;;;;;;;5.63;1.42;;;;;;;7.60;100.00;98186.09;5069316;28;20044;-96
2021/03/12 22:54:35;;;;;;;11.75;1.67;;;;;;;7.80;100.00;98174.66;5070930;28;20025;-96
2021/03/12 22:57:00;;;;;;;11.73;1.65;;;;;;;7.92;100.00;98180.56;5071207;28;20085;-95
2021/03/12 22:59:26;;;;;;;8.65;1.60;;;;;;;8.00;100.00;98157.16;5071536;28;20032;-96
2021/03/12 23:01:51;;;;;;;5.82;1.55;;;;;;;8.03;100.00;98182.97;5070895;28;20538;-96
2021/03/12 23:04:17;;;;;;;10.07;1.58;;;;;;;7.93;100.00;98172.53;5073091;28;20021;-96
2021/03/12 23:06:43;;;;;;;9.63;1.50;;;;;;;7.81;100.00;98158.00;5074244;28;20059;-96
2021/03/12 23:09:09;;;;;;;12.63;1.38;;;;;;;8.04;100.00;98126.31;5088699;28;20025;-96
2021/03/12 23:11:36;;;;;;;11.32;1.90;;;;;;;8.26;100.00;98130.34;5078378;28;20118;-96
2021/03/12 23:14:04;;;;;;;7.30;2.20;;;;;;;8.07;100.00;98124.22;5083672;28;20521;-96
2021/03/12 23:16:31;;;;;;;10.48;2.70;;;;;;;8.56;100.00;98137.09;5065631;28;20096;-96
2021/03/12 23:18:57;;;;;;;8.40;1.85;;;;;;;7.87;100.00;98084.28;5091876;28;20013;-96
2021/03/12 23:21:23;;;;;;;8.68;1.50;;;;;;;7.68;100.00;98073.91;5093778;28;20052;-96
2021/03/12 23:23:54;;;;;;;13.32;1.92;;;;;;;7.47;100.00;98080.16;5094208;28;20019;-96
2021/03/12 23:26:20;;;;;;;14.48;1.88;;;;;;;7.32;100.00;98065.91;5096378;22;20100;-96
2021/03/12 23:28:50;;;;;;;12.80;1.65;;;;;;;7.40;100.00;98049.53;5064385;28;20075;-96
2021/03/12 23:31:21;;;;;;;7.22;1.70;;;;;;;7.49;100.00;98036.47;5059003;28;20032;-96
2021/03/12 23:33:49;;;;;;;15.20;1.63;;;;;;;7.27;100.00;98015.94;5059048;28;20040;-96
2021/03/12 23:36:23;;;;;;;10.25;1.95;;;;;;;7.43;100.00;98004.88;5046515;28;20025;-96
2021/03/12 23:38:49;;;;;;;9.20;1.75;;;;;;;7.69;100.00;97998.03;5046570;28;20040;-96
2021/03/12 23:43:50;;;;;;;7.75;1.60;;;;;;;7.50;100.00;98013.78;5171194;22;20083;-95
2021/03/12 23:46:18;;;;;;;11.05;1.60;;;;;;;7.44;100.00;98023.00;5058595;28;20037;-96
2021/03/12 23:48:44;;;;;;;14.95;2.35;;;;;;;7.49;100.00;98031.25;5074960;28;20166;-96
2021/03/12 23:51:16;;;;;;;7.57;1.80;;;;;;;7.47;100.00;98116.72;5063522;28;20067;-96
2021/03/12 23:53:41;;;;;;;26.15;2.33;;;;;;;6.91;100.00;98091.38;5040828;28;20017;-96
2021/03/12 23:56:08;;;;;;;14.20;1.67;;;;;;;7.13;100.00;98116.38;5039519;28;20052;-96
2021/03/12 23:58:33;;;;;;;5.53;0.93;;;;;;;7.05;100.00;98111.84;5038892;28;20032;-96
